createdAt,value
2022-09-18T00:01:10.780Z,100.00
2022-09-18T00:03:40.545Z,100.00
2022-09-18T00:06:10.656Z,100.00
2022-09-18T00:08:38.723Z,100.00
2022-09-18T00:11:08.211Z,100.00
2022-09-18T00:13:36.411Z,100.00
2022-09-18T00:16:04.765Z,100.00
2022-09-18T00:18:32.888Z,100.00
2022-09-18T00:21:06.164Z,100.00
2022-09-18T00:23:33.936Z,100.00
2022-09-18T00:26:01.733Z,100.00
2022-09-18T00:28:29.836Z,100.00
2022-09-18T00:30:57.706Z,100.00
2022-09-18T00:33:25.685Z,100.00
2022-09-18T00:35:53.415Z,100.00
2022-09-18T00:38:22.507Z,100.00
2022-09-18T00:40:50.290Z,100.00
2022-09-18T00:43:23.209Z,100.00
2022-09-18T00:45:55.691Z,100.00
2022-09-18T00:48:28.010Z,100.00
2022-09-18T00:50:55.914Z,100.00
2022-09-18T00:53:25.074Z,100.00
2022-09-18T00:55:52.846Z,100.00
2022-09-18T00:58:21.577Z,100.00
2022-09-18T01:00:49.410Z,100.00
2022-09-18T01:03:17.242Z,100.00
2022-09-18T01:05:57.976Z,100.00
2022-09-18T01:08:41.801Z,100.00
2022-09-18T01:11:24.878Z,100.00
2022-09-18T01:14:01.690Z,100.00
2022-09-18T01:16:35.230Z,100.00
2022-09-18T01:19:16.201Z,100.00
2022-09-18T01:21:50.736Z,100.00
2022-09-18T01:24:38.614Z,100.00
2022-09-18T01:27:08.737Z,100.00
2022-09-18T01:29:49.582Z,100.00
2022-09-18T01:32:24.431Z,100.00
2022-09-18T01:34:59.575Z,100.00
2022-09-18T01:37:33.824Z,100.00
2022-09-18T01:40:08.152Z,100.00
2022-09-18T01:42:37.649Z,100.00
2022-09-18T01:45:11.181Z,100.00
2022-09-18T01:47:46.455Z,100.00
2022-09-18T01:50:17.702Z,100.00
2022-09-18T01:52:52.524Z,100.00
2022-09-18T01:55:23.924Z,100.00
2022-09-18T01:57:56.123Z,100.00
2022-09-18T02:00:25.922Z,100.00
2022-09-18T02:02:59.468Z,100.00
2022-09-18T02:05:31.588Z,100.00
2022-09-18T02:08:12.439Z,100.00
2022-09-18T02:10:45.882Z,100.00
2022-09-18T02:13:17.761Z,100.00
2022-09-18T02:15:50.552Z,100.00
2022-09-18T02:18:24.203Z,100.00
2022-09-18T02:20:53.034Z,100.00
2022-09-18T02:23:21.674Z,100.00
2022-09-18T02:25:52.971Z,100.00
2022-09-18T02:28:24.098Z,100.00
2022-09-18T02:30:53.223Z,100.00
2022-09-18T02:33:26.349Z,100.00
2022-09-18T02:36:22.022Z,100.00
2022-09-18T02:38:58.250Z,100.00
2022-09-18T02:41:34.974Z,100.00
2022-09-18T02:44:10.168Z,100.00
2022-09-18T02:46:50.790Z,100.00
2022-09-18T02:49:30.869Z,100.00
2022-09-18T02:52:02.988Z,100.00
2022-09-18T02:54:38.603Z,100.00
2022-09-18T02:57:11.603Z,100.00
2022-09-18T02:59:42.714Z,100.00
2022-09-18T03:02:11.905Z,100.00
2022-09-18T03:04:39.807Z,100.00
2022-09-18T03:07:07.767Z,100.00
2022-09-18T03:09:35.525Z,100.00
2022-09-18T03:12:03.773Z,100.00
2022-09-18T03:14:31.530Z,100.00
2022-09-18T03:16:59.321Z,100.00
2022-09-18T03:19:28.761Z,100.00
2022-09-18T03:21:56.514Z,100.00
2022-09-18T03:24:25.351Z,100.00
2022-09-18T03:26:53.840Z,100.00
2022-09-18T03:29:21.707Z,100.00
2022-09-18T03:31:49.544Z,100.00
2022-09-18T03:34:17.466Z,100.00
2022-09-18T03:36:47.096Z,100.00
2022-09-18T03:39:16.212Z,100.00
2022-09-18T03:41:44.187Z,100.00
2022-09-18T03:44:11.981Z,100.00
2022-09-18T03:46:39.783Z,100.00
2022-09-18T03:49:09.005Z,100.00
2022-09-18T03:51:36.830Z,100.00
2022-09-18T03:54:06.327Z,100.00
2022-09-18T03:56:34.226Z,100.00
2022-09-18T03:59:01.965Z,100.00
2022-09-18T04:01:29.750Z,100.00
2022-09-18T04:03:57.643Z,100.00
2022-09-18T04:06:25.576Z,100.00
2022-09-18T04:08:53.323Z,100.00
2022-09-18T04:11:22.466Z,100.00
2022-09-18T04:13:50.219Z,100.00
2022-09-18T04:16:18.100Z,100.00
2022-09-18T04:18:46.074Z,100.00
2022-09-18T04:21:13.825Z,100.00
2022-09-18T04:23:41.655Z,100.00
2022-09-18T04:26:10.375Z,100.00
2022-09-18T04:28:39.548Z,100.00
2022-09-18T04:31:07.442Z,100.00
2022-09-18T04:33:35.363Z,100.00
2022-09-18T04:36:03.354Z,100.00
2022-09-18T04:38:31.196Z,100.00
2022-09-18T04:40:59.190Z,100.00
2022-09-18T04:43:28.195Z,100.00
2022-09-18T04:45:57.404Z,100.00
2022-09-18T04:48:25.312Z,100.00
2022-09-18T04:50:53.087Z,100.00
2022-09-18T04:53:21.363Z,100.00
2022-09-18T04:55:49.890Z,100.00
2022-09-18T04:58:18.718Z,100.00
2022-09-18T05:00:49.587Z,100.00
2022-09-18T05:03:19.462Z,100.00
2022-09-18T05:05:48.311Z,100.00
2022-09-18T05:08:16.055Z,100.00
2022-09-18T05:10:44.255Z,100.00
2022-09-18T05:13:11.995Z,100.00
2022-09-18T05:15:39.765Z,100.00
2022-09-18T05:18:11.507Z,100.00
2022-09-18T05:20:41.116Z,100.00
2022-09-18T05:23:09.041Z,100.00
2022-09-18T05:25:36.908Z,100.00
2022-09-18T05:28:05.191Z,100.00
2022-09-18T05:30:33.252Z,100.00
2022-09-18T05:33:02.776Z,100.00
2022-09-18T05:35:32.554Z,100.00
2022-09-18T05:38:02.286Z,100.00
2022-09-18T05:40:33.703Z,100.00
2022-09-18T05:43:02.995Z,100.00
2022-09-18T05:45:31.052Z,100.00
2022-09-18T05:48:00.552Z,100.00
2022-09-18T05:50:29.913Z,100.00
2022-09-18T05:53:01.385Z,100.00
2022-09-18T05:55:31.873Z,100.00
2022-09-18T05:58:01.577Z,100.00
2022-09-18T06:00:31.336Z,100.00
2022-09-18T06:03:00.952Z,100.00
2022-09-18T06:05:30.586Z,100.00
2022-09-18T06:08:00.083Z,100.00
2022-09-18T06:10:30.435Z,100.00
2022-09-18T06:13:02.541Z,100.00
2022-09-18T06:15:30.324Z,100.00
2022-09-18T06:17:58.190Z,100.00
2022-09-18T06:20:26.174Z,100.00
2022-09-18T06:22:54.252Z,100.00
2022-09-18T06:25:23.834Z,100.00
2022-09-18T06:27:58.799Z,100.00
2022-09-18T06:30:27.984Z,100.00
2022-09-18T06:32:56.905Z,100.00
2022-09-18T06:35:24.995Z,100.00
2022-09-18T06:37:52.854Z,100.00
2022-09-18T06:40:20.658Z,100.00
2022-09-18T06:42:48.507Z,100.00
2022-09-18T06:45:17.880Z,100.00
2022-09-18T06:47:45.630Z,100.00
2022-09-18T06:50:13.754Z,100.00
2022-09-18T06:52:41.564Z,100.00
2022-09-18T06:55:09.784Z,100.00
2022-09-18T06:57:37.596Z,100.00
2022-09-18T07:00:06.382Z,100.00
2022-09-18T07:02:35.478Z,100.00
2022-09-18T07:05:03.362Z,100.00
2022-09-18T07:07:31.128Z,100.00
2022-09-18T07:09:58.854Z,100.00
2022-09-18T07:12:28.490Z,100.00
2022-09-18T07:14:56.498Z,100.00
2022-09-18T07:17:26.365Z,100.00
2022-09-18T07:19:55.819Z,100.00
2022-09-18T07:22:24.107Z,100.00
2022-09-18T07:24:51.854Z,100.00
2022-09-18T07:27:19.618Z,100.00
2022-09-18T07:29:47.409Z,100.00
2022-09-18T07:32:15.632Z,100.00
2022-09-18T07:34:43.403Z,100.00
2022-09-18T07:37:12.535Z,100.00
2022-09-18T07:39:40.413Z,100.00
2022-09-18T07:42:09.148Z,100.00
2022-09-18T07:44:37.225Z,100.00
2022-09-18T07:47:05.754Z,100.00
2022-09-18T07:49:33.907Z,100.00
2022-09-18T07:52:02.972Z,100.00
2022-09-18T07:54:32.362Z,98.26
2022-09-18T07:57:00.140Z,99.31
2022-09-18T07:59:27.933Z,99.77
2022-09-18T08:01:55.995Z,100.00
2022-09-18T08:04:24.097Z,100.00
2022-09-18T08:06:53.529Z,100.00
2022-09-18T08:09:21.334Z,100.00
2022-09-18T08:11:52.811Z,100.00
2022-09-18T08:14:21.926Z,100.00
2022-09-18T08:16:51.848Z,100.00
2022-09-18T08:19:19.585Z,100.00
2022-09-18T08:21:47.370Z,100.00
2022-09-18T08:24:17.388Z,100.00
2022-09-18T08:26:45.391Z,100.00
2022-09-18T08:29:19.062Z,100.00
2022-09-18T08:31:47.312Z,100.00
2022-09-18T08:34:15.185Z,100.00
2022-09-18T08:36:42.996Z,100.00
2022-09-18T08:39:11.022Z,100.00
2022-09-18T08:41:51.174Z,100.00
2022-09-18T08:44:25.113Z,100.00
2022-09-18T08:47:01.496Z,100.00
2022-09-18T08:49:33.407Z,100.00
2022-09-18T08:52:05.562Z,100.00
2022-09-18T08:54:47.342Z,100.00
2022-09-18T08:57:22.338Z,100.00
2022-09-18T08:59:54.844Z,100.00
2022-09-18T09:02:32.967Z,100.00
2022-09-18T09:05:06.885Z,100.00
2022-09-18T09:08:08.662Z,100.00
2022-09-18T09:10:43.087Z,100.00
2022-09-18T09:13:53.776Z,100.00
2022-09-18T09:16:29.541Z,100.00
2022-09-18T09:19:01.161Z,100.00
2022-09-18T09:21:52.380Z,100.00
2022-09-18T09:24:31.258Z,100.00
2022-09-18T09:27:15.735Z,100.00
2022-09-18T09:29:47.293Z,100.00
2022-09-18T09:32:25.743Z,100.00
2022-09-18T09:34:58.693Z,100.00
2022-09-18T09:37:36.777Z,100.00
2022-09-18T09:40:12.085Z,100.00
2022-09-18T09:42:47.195Z,100.00
2022-09-18T09:45:19.992Z,100.00
2022-09-18T09:47:58.046Z,100.00
2022-09-18T09:50:47.815Z,100.00
2022-09-18T09:53:15.574Z,100.00
2022-09-18T09:55:55.328Z,100.00
2022-09-18T09:58:34.157Z,100.00
2022-09-18T10:01:10.517Z,100.00
2022-09-18T10:03:52.955Z,100.00
2022-09-18T10:06:32.771Z,100.00
2022-09-18T10:09:08.894Z,100.00
2022-09-18T10:11:43.000Z,100.00
2022-09-18T10:14:16.392Z,100.00
2022-09-18T10:16:48.517Z,100.00
2022-09-18T10:19:20.425Z,100.00
2022-09-18T10:21:50.587Z,99.44
2022-09-18T10:24:26.410Z,97.86
2022-09-18T10:26:58.239Z,89.97
2022-09-18T10:29:26.732Z,87.21
2022-09-18T10:31:56.870Z,88.55
2022-09-18T10:34:35.712Z,87.88
2022-09-18T10:37:05.908Z,88.77
2022-09-18T10:39:36.439Z,91.27
2022-09-18T10:42:06.243Z,91.90
2022-09-18T10:44:36.840Z,94.34
2022-09-18T10:47:09.064Z,94.46
2022-09-18T10:49:41.862Z,97.68
2022-09-18T10:52:27.113Z,100.00
2022-09-18T10:55:17.040Z,100.00
2022-09-18T10:58:01.351Z,100.00
2022-09-18T11:00:42.051Z,100.00
2022-09-18T11:03:30.282Z,100.00
2022-09-18T11:06:02.479Z,100.00
2022-09-18T11:08:33.962Z,100.00
2022-09-18T11:11:05.741Z,100.00
2022-09-18T11:13:42.665Z,100.00
2022-09-18T11:16:10.897Z,100.00
2022-09-18T11:18:41.019Z,100.00
2022-09-18T11:21:10.525Z,100.00
2022-09-18T11:23:38.669Z,100.00
2022-09-18T11:26:19.370Z,100.00
2022-09-18T11:29:19.103Z,100.00
2022-09-18T11:31:51.108Z,100.00
2022-09-18T11:34:26.688Z,100.00
2022-09-18T11:36:59.783Z,100.00
2022-09-18T11:39:31.254Z,100.00
2022-09-18T11:41:59.613Z,100.00
2022-09-18T11:44:31.444Z,100.00
2022-09-18T11:47:29.810Z,100.00
2022-09-18T11:50:06.372Z,100.00
2022-09-18T11:52:39.563Z,100.00
2022-09-18T11:55:21.122Z,100.00
2022-09-18T11:57:52.024Z,100.00
2022-09-18T12:00:21.844Z,100.00
2022-09-18T12:03:00.758Z,100.00
2022-09-18T12:05:34.201Z,100.00
2022-09-18T12:08:11.863Z,100.00
2022-09-18T12:10:52.542Z,100.00
2022-09-18T12:13:33.770Z,100.00
2022-09-18T12:16:09.185Z,100.00
2022-09-18T12:18:48.949Z,100.00
2022-09-18T12:21:21.870Z,100.00
2022-09-18T12:23:51.112Z,100.00
2022-09-18T12:26:27.628Z,100.00
2022-09-18T12:29:10.192Z,98.50
2022-09-18T12:31:44.730Z,98.48
2022-09-18T12:34:20.930Z,99.53
2022-09-18T12:37:00.126Z,100.00
2022-09-18T12:39:46.221Z,100.00
2022-09-18T12:42:23.055Z,100.00
2022-09-18T12:45:18.498Z,100.00
2022-09-18T12:48:04.685Z,100.00
2022-09-18T12:50:45.740Z,100.00
2022-09-18T12:53:27.605Z,100.00
2022-09-18T12:56:13.592Z,100.00
2022-09-18T12:59:01.058Z,100.00
2022-09-18T13:01:33.992Z,100.00
2022-09-18T13:04:06.833Z,100.00
2022-09-18T13:06:41.038Z,97.01
2022-09-18T13:09:21.666Z,98.74
2022-09-18T13:11:58.584Z,96.56
2022-09-18T13:14:31.581Z,97.64
2022-09-18T13:17:07.380Z,100.00
2022-09-18T13:19:38.994Z,100.00
2022-09-18T13:22:12.492Z,99.29
2022-09-18T13:24:42.028Z,98.17
2022-09-18T13:27:15.526Z,97.81
2022-09-18T13:29:56.735Z,96.97
2022-09-18T13:32:38.435Z,99.38
2022-09-18T13:35:19.578Z,97.86
2022-09-18T13:37:48.700Z,99.68
2022-09-18T13:40:33.290Z,100.00
2022-09-18T13:43:15.775Z,100.00
2022-09-18T13:45:43.595Z,100.00
2022-09-18T13:48:20.623Z,100.00
2022-09-18T13:50:55.245Z,100.00
2022-09-18T13:53:32.980Z,100.00
2022-09-18T13:56:01.014Z,100.00
2022-09-18T13:59:00.550Z,100.00
2022-09-18T14:02:03.921Z,100.00
2022-09-18T14:05:00.342Z,100.00
2022-09-18T14:07:55.904Z,100.00
2022-09-18T14:10:37.481Z,100.00
2022-09-18T14:13:32.608Z,100.00
2022-09-18T14:16:07.182Z,100.00
2022-09-18T14:18:40.623Z,100.00
2022-09-18T14:21:21.780Z,100.00
2022-09-18T14:24:37.281Z,100.00
2022-09-18T14:27:37.069Z,100.00
2022-09-18T14:30:18.193Z,100.00
2022-09-18T14:33:07.290Z,100.00
2022-09-18T14:35:41.942Z,100.00
2022-09-18T14:38:28.081Z,100.00
2022-09-18T14:41:02.010Z,100.00
2022-09-18T14:43:29.831Z,100.00
2022-09-18T14:45:57.984Z,100.00
2022-09-18T14:48:32.216Z,100.00
2022-09-18T14:51:03.363Z,100.00
2022-09-18T14:53:31.673Z,100.00
2022-09-18T14:56:04.481Z,100.00
2022-09-18T14:58:35.920Z,100.00
2022-09-18T15:01:06.074Z,100.00
2022-09-18T15:03:39.464Z,100.00
2022-09-18T15:06:10.844Z,100.00
2022-09-18T15:08:39.193Z,100.00
2022-09-18T15:11:07.852Z,100.00
2022-09-18T15:13:38.659Z,100.00
2022-09-18T15:16:07.360Z,100.00
2022-09-18T15:18:43.046Z,100.00
2022-09-18T15:21:22.721Z,100.00
2022-09-18T15:23:51.066Z,100.00
2022-09-18T15:26:19.566Z,100.00
2022-09-18T15:28:50.532Z,100.00
2022-09-18T15:31:21.438Z,100.00
2022-09-18T15:33:57.339Z,100.00
2022-09-18T15:36:28.501Z,100.00
2022-09-18T15:38:58.074Z,100.00
2022-09-18T15:41:39.336Z,100.00
2022-09-18T15:44:07.487Z,100.00
2022-09-18T15:46:37.002Z,100.00
2022-09-18T15:49:28.922Z,100.00
2022-09-18T15:51:57.210Z,100.00
2022-09-18T15:54:26.724Z,100.00
2022-09-18T15:56:57.812Z,100.00
2022-09-18T15:59:30.038Z,100.00
2022-09-18T16:01:59.167Z,100.00
2022-09-18T16:04:32.863Z,100.00
2022-09-18T16:07:04.034Z,100.00
2022-09-18T16:09:38.641Z,100.00
2022-09-18T16:12:35.621Z,100.00
2022-09-18T16:15:16.353Z,100.00
2022-09-18T16:17:59.327Z,100.00
2022-09-18T16:20:31.849Z,100.00
2022-09-18T16:23:19.568Z,100.00
2022-09-18T16:26:01.051Z,100.00
2022-09-18T16:28:31.211Z,100.00
2022-09-18T16:30:58.966Z,100.00
2022-09-18T16:33:28.858Z,100.00
2022-09-18T16:36:02.638Z,100.00
2022-09-18T16:38:31.227Z,100.00
2022-09-18T16:40:59.313Z,100.00
2022-09-18T16:43:27.367Z,100.00
2022-09-18T16:45:55.961Z,100.00
2022-09-18T16:48:25.503Z,100.00
2022-09-18T16:50:53.258Z,100.00
2022-09-18T16:53:22.396Z,100.00
2022-09-18T16:55:53.096Z,100.00
2022-09-18T16:58:22.499Z,100.00
2022-09-18T17:00:50.391Z,100.00
2022-09-18T17:03:19.225Z,100.00
2022-09-18T17:05:47.431Z,100.00
2022-09-18T17:08:15.800Z,100.00
2022-09-18T17:10:45.420Z,100.00
2022-09-18T17:13:13.692Z,100.00
2022-09-18T17:15:41.858Z,100.00
2022-09-18T17:18:09.831Z,100.00
2022-09-18T17:20:38.499Z,100.00
2022-09-18T17:23:07.052Z,100.00
2022-09-18T17:25:34.845Z,100.00
2022-09-18T17:28:04.913Z,100.00
2022-09-18T17:30:32.791Z,100.00
2022-09-18T17:33:00.559Z,100.00
2022-09-18T17:35:30.629Z,100.00
2022-09-18T17:37:58.408Z,100.00
2022-09-18T17:40:26.295Z,100.00
2022-09-18T17:42:54.365Z,100.00
2022-09-18T17:45:23.517Z,100.00
2022-09-18T17:47:52.261Z,100.00
2022-09-18T17:50:21.176Z,100.00
2022-09-18T17:52:49.314Z,100.00
2022-09-18T17:55:19.912Z,100.00
2022-09-18T17:57:49.428Z,100.00
2022-09-18T18:00:17.495Z,100.00
2022-09-18T18:02:46.629Z,100.00
2022-09-18T18:05:15.065Z,100.00
2022-09-18T18:07:42.832Z,100.00
2022-09-18T18:10:10.937Z,100.00
2022-09-18T18:12:38.711Z,100.00
2022-09-18T18:15:07.372Z,100.00
2022-09-18T18:17:35.765Z,100.00
2022-09-18T18:20:06.161Z,100.00
2022-09-18T18:22:33.974Z,100.00
2022-09-18T18:25:01.963Z,100.00
2022-09-18T18:27:29.741Z,100.00
2022-09-18T18:29:57.540Z,100.00
2022-09-18T18:32:25.323Z,100.00
2022-09-18T18:34:53.114Z,100.00
2022-09-18T18:37:22.859Z,100.00
2022-09-18T18:39:50.649Z,100.00
2022-09-18T18:42:18.426Z,100.00
2022-09-18T18:44:46.251Z,100.00
2022-09-18T18:47:14.057Z,100.00
2022-09-18T18:49:41.830Z,100.00
2022-09-18T18:52:10.646Z,100.00
2022-09-18T18:54:40.572Z,100.00
2022-09-18T18:57:09.150Z,100.00
2022-09-18T18:59:37.011Z,100.00
2022-09-18T19:02:06.057Z,100.00
2022-09-18T19:04:35.458Z,100.00
2022-09-18T19:07:03.286Z,100.00
2022-09-18T19:09:32.379Z,100.00
2022-09-18T19:12:02.143Z,100.00
2022-09-18T19:14:33.284Z,100.00
2022-09-18T19:17:02.096Z,100.00
2022-09-18T19:19:30.205Z,100.00
2022-09-18T19:21:59.715Z,100.00
2022-09-18T19:24:27.741Z,100.00
2022-09-18T19:26:55.766Z,100.00
2022-09-18T19:29:24.875Z,100.00
2022-09-18T19:31:52.857Z,100.00
2022-09-18T19:34:22.037Z,100.00
2022-09-18T19:36:50.421Z,100.00
2022-09-18T19:39:19.798Z,98.29
2022-09-18T19:41:54.657Z,97.36
2022-09-18T19:44:29.003Z,95.11
2022-09-18T19:47:00.284Z,95.15
2022-09-18T19:49:34.349Z,95.17
2022-09-18T19:52:03.244Z,96.03
2022-09-18T19:54:31.599Z,97.04
2022-09-18T19:57:00.022Z,97.63
2022-09-18T19:59:29.400Z,98.36
2022-09-18T20:01:57.281Z,98.40
2022-09-18T20:04:25.064Z,100.00
2022-09-18T20:06:52.890Z,100.00
2022-09-18T20:09:20.802Z,100.00
2022-09-18T20:11:48.646Z,100.00
2022-09-18T20:14:16.514Z,100.00
2022-09-18T20:16:45.623Z,100.00
2022-09-18T20:19:13.576Z,100.00
2022-09-18T20:21:41.452Z,100.00
2022-09-18T20:24:09.278Z,100.00
2022-09-18T20:26:37.099Z,100.00
2022-09-18T20:29:04.986Z,100.00
2022-09-18T20:31:32.824Z,100.00
2022-09-18T20:34:02.574Z,100.00
2022-09-18T20:36:31.972Z,100.00
2022-09-18T20:39:03.553Z,100.00
2022-09-18T20:41:31.623Z,100.00
2022-09-18T20:44:04.889Z,100.00
2022-09-18T20:46:37.226Z,100.00
2022-09-18T20:49:08.147Z,100.00
2022-09-18T20:51:36.724Z,100.00
2022-09-18T20:54:08.203Z,100.00
2022-09-18T20:56:41.358Z,100.00
2022-09-18T20:59:10.534Z,100.00
2022-09-18T21:01:41.434Z,100.00
2022-09-18T21:04:16.910Z,100.00
2022-09-18T21:06:46.146Z,100.00
2022-09-18T21:09:13.890Z,100.00
2022-09-18T21:11:43.746Z,100.00
2022-09-18T21:14:14.035Z,100.00
2022-09-18T21:16:42.837Z,100.00
2022-09-18T21:19:14.166Z,100.00
2022-09-18T21:21:42.174Z,100.00
2022-09-18T21:24:09.975Z,100.00
2022-09-18T21:26:39.600Z,100.00
2022-09-18T21:29:12.181Z,100.00
2022-09-18T21:31:42.433Z,100.00
2022-09-18T21:34:13.928Z,100.00
2022-09-18T21:36:45.060Z,100.00
2022-09-18T21:39:14.464Z,100.00
2022-09-18T21:41:46.299Z,100.00
2022-09-18T21:44:16.280Z,100.00
2022-09-18T21:46:45.538Z,100.00
2022-09-18T21:49:16.155Z,100.00
2022-09-18T21:51:44.723Z,100.00
2022-09-18T21:54:15.449Z,100.00
2022-09-18T21:56:44.009Z,100.00
2022-09-18T21:59:12.605Z,100.00
2022-09-18T22:01:41.669Z,100.00
2022-09-18T22:04:10.370Z,100.00
2022-09-18T22:06:41.676Z,100.00
2022-09-18T22:09:11.450Z,100.00
2022-09-18T22:11:39.857Z,100.00
2022-09-18T22:14:09.730Z,100.00
2022-09-18T22:16:38.126Z,100.00
2022-09-18T22:19:08.194Z,100.00
2022-09-18T22:21:41.514Z,100.00
2022-09-18T22:24:12.357Z,100.00
2022-09-18T22:26:42.311Z,100.00
2022-09-18T22:29:15.790Z,100.00
2022-09-18T22:31:46.421Z,100.00
2022-09-18T22:34:15.331Z,100.00
2022-09-18T22:36:45.009Z,100.00
2022-09-18T22:39:13.780Z,100.00
2022-09-18T22:41:41.971Z,100.00
2022-09-18T22:44:10.008Z,100.00
2022-09-18T22:46:39.153Z,100.00
2022-09-18T22:49:08.741Z,100.00
2022-09-18T22:51:36.761Z,100.00
2022-09-18T22:54:07.510Z,100.00
2022-09-18T22:56:38.834Z,100.00
2022-09-18T22:59:06.744Z,100.00
2022-09-18T23:01:37.427Z,100.00
2022-09-18T23:04:05.903Z,100.00
2022-09-18T23:06:34.698Z,100.00
2022-09-18T23:09:04.667Z,100.00
2022-09-18T23:11:35.317Z,100.00
2022-09-18T23:14:05.210Z,100.00
2022-09-18T23:16:35.765Z,100.00
2022-09-18T23:19:06.464Z,100.00
2022-09-18T23:21:35.824Z,100.00
2022-09-18T23:24:08.891Z,100.00
2022-09-18T23:26:40.923Z,100.00
2022-09-18T23:29:10.098Z,100.00
2022-09-18T23:31:40.586Z,100.00
2022-09-18T23:34:10.200Z,100.00
2022-09-18T23:36:40.449Z,100.00
2022-09-18T23:39:11.661Z,100.00
2022-09-18T23:41:41.087Z,100.00
2022-09-18T23:44:10.592Z,100.00
2022-09-18T23:46:38.762Z,100.00
2022-09-18T23:49:08.426Z,100.00
2022-09-18T23:51:38.311Z,100.00
2022-09-18T23:54:07.513Z,100.00
2022-09-18T23:56:37.194Z,100.00
2022-09-18T23:59:07.937Z,100.00
